Time;durP1;ratioP1;P1;durP2;ratioP2;P2;SDS_P1;SDS_P2;PMS_P1;PMS_P2;Temp;Humidity;BMP_temperature;BMP_pressure;BME280_temperature;BME280_humidity;BME280_pressure;Samples;Min_cycle;Max_cycle;Signal;HPM_P1;HPM_P2
2022/12/19 00:00:50;;;;;;;73.07;33.15;;;0.80;1.00;;;;;;5001635;28;20194;-86
2022/12/19 00:03:16;;;;;;;82.03;39.25;;;0.80;1.00;;;;;;5000471;28;20183;-86
2022/12/19 00:05:44;;;;;;;69.77;33.27;;;0.80;1.00;;;;;;5019602;28;20183;-86
2022/12/19 00:08:26;;;;;;;79.40;37.67;;;0.80;1.00;;;;;;5017715;28;20202;-85
2022/12/19 00:10:58;;;;;;;77.35;36.40;;;0.80;1.00;;;;;;4996185;28;20189;-86
2022/12/19 00:13:34;;;;;;;71.70;32.22;;;0.90;1.00;;;;;;5001944;28;20304;-86
2022/12/19 00:16:14;;;;;;;79.72;37.22;;;0.90;1.00;;;;;;5007967;28;20182;-86
2022/12/19 00:18:49;;;;;;;74.47;34.00;;;0.90;1.00;;;;;;5004516;28;20183;-86
2022/12/19 00:21:20;;;;;;;71.85;34.50;;;0.90;1.00;;;;;;5019829;28;20242;-86
2022/12/19 00:23:56;;;;;;;73.18;31.25;;;1.00;1.00;;;;;;5002031;28;20187;-86
2022/12/19 00:26:33;;;;;;;64.18;30.23;;;1.00;1.00;;;;;;4996184;28;20191;-85
2022/12/19 00:29:07;;;;;;;64.20;36.03;;;1.00;1.00;;;;;;5020110;28;20189;-86
2022/12/19 00:31:34;;;;;;;59.45;28.05;;;1.10;1.00;;;;;;5019372;28;20193;-86
2022/12/19 00:34:03;;;;;;;68.55;31.75;;;1.10;1.00;;;;;;5001313;28;20667;-86
2022/12/19 00:36:32;;;;;;;68.03;33.47;;;1.10;1.00;;;;;;5009176;28;20226;-86
2022/12/19 00:39:05;;;;;;;61.55;31.10;;;1.10;1.00;;;;;;5019055;28;20182;-86
2022/12/19 00:41:32;;;;;;;58.75;28.25;;;1.10;1.00;;;;;;5003633;28;20183;-85
2022/12/19 00:44:03;;;;;;;70.30;35.58;;;1.20;1.00;;;;;;5000567;28;20178;-86
2022/12/19 00:46:35;;;;;;;63.67;32.63;;;1.20;1.00;;;;;;5015659;28;20306;-86
2022/12/19 00:49:02;;;;;;;65.97;30.45;;;1.20;1.00;;;;;;5002921;28;20175;-85
2022/12/19 00:51:30;;;;;;;63.13;33.95;;;1.30;1.00;;;;;;5008079;28;20191;-85
2022/12/19 00:54:01;;;;;;;61.83;31.25;;;1.30;1.00;;;;;;5001711;28;20283;-87
2022/12/19 00:56:30;;;;;;;62.17;30.42;;;1.30;1.00;;;;;;5018130;28;20544;-85
2022/12/19 00:58:58;;;;;;;50.65;26.27;;;1.40;1.00;;;;;;5013971;28;20186;-86
2022/12/19 01:01:29;;;;;;;55.40;26.88;;;1.40;1.00;;;;;;5016384;28;20691;-86
2022/12/19 01:03:57;;;;;;;57.20;27.40;;;1.50;1.00;;;;;;5000269;28;20171;-86
2022/12/19 01:06:26;;;;;;;53.88;27.98;;;1.50;1.00;;;;;;5005691;28;20187;-86
2022/12/19 01:08:53;;;;;;;56.17;29.98;;;1.60;1.00;;;;;;5024951;28;20194;-86
2022/12/19 01:12:44;;;;;;;48.25;24.23;;;1.60;1.00;;;;;;5030117;28;20201;-85
2022/12/19 01:14:04;;;;;;;55.92;27.58;;;1.60;1.00;;;;;;5021340;28;20193;-86
2022/12/19 01:16:30;;;;;;;53.87;27.37;;;1.60;1.00;;;;;;5007412;28;20214;-86
2022/12/19 01:18:55;;;;;;;53.00;27.07;;;1.70;1.00;;;;;;5023196;28;20446;-87
2022/12/19 01:21:27;;;;;;;56.43;31.33;;;1.70;1.00;;;;;;4988882;28;20200;-86
2022/12/19 01:23:53;;;;;;;52.58;32.25;;;1.70;1.00;;;;;;5016254;28;20187;-86
2022/12/19 01:26:19;;;;;;;51.60;27.93;;;1.70;1.00;;;;;;4998797;28;20183;-84
2022/12/19 01:28:45;;;;;;;48.70;24.70;;;1.70;1.00;;;;;;5016486;28;20418;-85
2022/12/19 01:31:12;;;;;;;51.87;27.50;;;1.70;1.00;;;;;;5016105;28;20418;-86
2022/12/19 01:33:40;;;;;;;51.80;27.35;;;1.70;1.00;;;;;;5008634;28;20187;-86
2022/12/19 01:36:08;;;;;;;54.15;30.25;;;1.80;1.00;;;;;;5005478;28;20179;-87
2022/12/19 01:38:35;;;;;;;51.25;28.85;;;1.80;1.00;;;;;;5024269;28;20167;-86
2022/12/19 01:41:02;;;;;;;48.97;25.48;;;1.80;1.00;;;;;;5026451;28;20185;-87
2022/12/19 01:43:30;;;;;;;45.60;25.60;;;1.80;1.00;;;;;;5024087;28;20184;-86
2022/12/19 01:46:01;;;;;;;49.28;28.02;;;1.90;1.00;;;;;;5017944;28;20171;-87
2022/12/19 01:48:40;;;;;;;51.50;33.10;;;1.90;1.00;;;;;;5018099;28;20535;-86
2022/12/19 01:51:17;;;;;;;45.30;24.48;;;1.90;1.00;;;;;;5016982;28;20201;-86
2022/12/19 01:53:47;;;;;;;44.22;23.60;;;2.00;1.00;;;;;;5005487;28;20187;-86
2022/12/19 01:56:16;;;;;;;48.53;25.95;;;2.00;1.00;;;;;;4997075;28;20190;-85
2022/12/19 01:58:48;;;;;;;46.60;26.25;;;2.10;1.00;;;;;;5013989;28;20226;-86
2022/12/19 02:01:18;;;;;;;44.30;24.88;;;2.10;1.00;;;;;;5011318;28;20262;-85
2022/12/19 02:03:44;;;;;;;49.25;26.52;;;2.10;1.00;;;;;;5004522;28;20655;-86
2022/12/19 02:06:12;;;;;;;49.28;24.10;;;2.10;1.00;;;;;;5012178;28;20186;-86
2022/12/19 02:08:45;;;;;;;44.88;24.25;;;2.20;1.00;;;;;;4995439;28;20180;-86
2022/12/19 02:11:10;;;;;;;50.92;25.27;;;2.20;1.00;;;;;;4995322;28;20210;-86
2022/12/19 02:13:36;;;;;;;45.57;22.90;;;2.20;1.00;;;;;;4996820;28;20211;-86
2022/12/19 02:16:25;;;;;;;47.20;23.70;;;2.30;1.00;;;;;;4997707;28;20432;-86
2022/12/19 02:18:56;;;;;;;46.88;25.48;;;2.30;1.00;;;;;;5005055;28;20190;-87
2022/12/19 02:22:00;;;;;;;40.42;24.65;;;2.30;1.00;;;;;;4999538;28;20187;-87
2022/12/19 02:24:42;;;;;;;47.47;25.00;;;2.40;1.00;;;;;;5005411;28;20190;-86
2022/12/19 02:27:46;;;;;;;44.83;25.38;;;2.40;1.00;;;;;;5013714;28;20207;-86
2022/12/19 02:30:36;;;;;;;44.05;23.95;;;2.40;1.00;;;;;;5000507;28;20194;-86
2022/12/19 02:33:14;;;;;;;49.08;26.73;;;2.40;1.00;;;;;;4985812;28;20671;-86
2022/12/19 02:35:52;;;;;;;39.30;23.67;;;2.40;1.00;;;;;;4998499;28;20557;-87
2022/12/19 02:38:26;;;;;;;44.17;24.77;;;2.40;1.00;;;;;;5020027;28;20321;-87
2022/12/19 02:41:06;;;;;;;49.25;26.00;;;2.50;1.00;;;;;;5018026;28;20185;-87
2022/12/19 02:43:38;;;;;;;47.22;26.40;;;2.50;1.00;;;;;;5002421;28;20179;-88
2022/12/19 02:46:08;;;;;;;54.03;28.92;;;2.50;1.00;;;;;;5022145;28;20183;-88
2022/12/19 02:48:42;;;;;;;54.85;28.50;;;2.40;1.00;;;;;;5004206;28;20191;-89
2022/12/19 02:51:08;;;;;;;67.95;32.70;;;2.40;1.00;;;;;;5003927;28;20183;-88
2022/12/19 02:53:36;;;;;;;62.63;30.10;;;2.40;1.00;;;;;;5004556;28;20190;-87
2022/12/19 02:56:04;;;;;;;69.60;34.28;;;2.40;1.00;;;;;;4995180;28;20265;-86
2022/12/19 02:59:07;;;;;;;75.03;40.30;;;2.40;1.00;;;;;;5001834;28;20195;-87
2022/12/19 03:01:49;;;;;;;74.40;32.30;;;2.30;1.00;;;;;;4991641;28;20198;-87
2022/12/19 03:04:20;;;;;;;60.78;27.40;;;2.30;1.00;;;;;;4995532;28;20201;-86
2022/12/19 03:07:02;;;;;;;59.67;33.15;;;2.40;1.00;;;;;;4996352;28;20198;-86
2022/12/19 03:09:51;;;;;;;56.97;28.67;;;2.40;1.00;;;;;;5013385;28;20257;-87
2022/12/19 03:12:35;;;;;;;45.85;25.05;;;2.50;1.00;;;;;;4999658;28;20204;-86
2022/12/19 03:15:02;;;;;;;57.33;25.45;;;2.50;1.00;;;;;;5000347;28;20187;-86
2022/12/19 03:17:28;;;;;;;58.65;29.50;;;2.50;1.00;;;;;;4997565;28;20219;-86
2022/12/19 03:19:54;;;;;;;60.00;27.98;;;2.50;1.00;;;;;;5012730;28;20182;-85
2022/12/19 03:22:20;;;;;;;72.13;36.08;;;2.60;1.00;;;;;;5010835;28;20184;-87
2022/12/19 03:24:46;;;;;;;64.50;32.65;;;2.60;1.00;;;;;;5019519;28;20187;-86
2022/12/19 03:27:21;;;;;;;78.10;38.30;;;2.60;1.00;;;;;;5019625;28;20198;-86
2022/12/19 03:30:05;;;;;;;80.57;42.78;;;2.60;1.00;;;;;;5012804;28;20174;-87
2022/12/19 03:32:32;;;;;;;77.85;35.63;;;2.70;1.00;;;;;;5016282;28;20197;-87
2022/12/19 03:35:03;;;;;;;97.63;39.60;;;2.70;1.00;;;;;;5020885;28;20190;-86
2022/12/19 03:37:33;;;;;;;102.60;39.28;;;2.80;1.00;;;;;;5023655;28;20249;-86
2022/12/19 03:40:01;;;;;;;104.47;40.92;;;2.80;1.00;;;;;;5027496;28;20213;-86
2022/12/19 03:45:20;;;;;;;119.88;43.03;;;2.90;1.00;;;;;;5025983;28;20257;-86
2022/12/19 03:47:50;;;;;;;121.20;47.92;;;2.90;1.00;;;;;;5018391;28;20202;-86
2022/12/19 03:50:16;;;;;;;133.65;47.60;;;2.90;1.00;;;;;;5023237;28;20175;-86
2022/12/19 03:52:52;;;;;;;131.00;43.60;;;2.90;1.00;;;;;;5026517;28;20229;-87
2022/12/19 03:55:24;;;;;;;149.15;49.97;;;3.00;1.00;;;;;;5011292;28;20434;-86
2022/12/19 03:58:01;;;;;;;137.60;42.88;;;3.00;1.00;;;;;;5014388;28;20314;-86
2022/12/19 04:00:28;;;;;;;159.80;49.83;;;2.90;1.00;;;;;;5017308;28;20179;-85
2022/12/19 04:02:56;;;;;;;156.13;54.15;;;3.00;1.00;;;;;;5024861;28;20175;-86
2022/12/19 04:05:25;;;;;;;157.27;51.63;;;3.00;1.00;;;;;;5024283;28;20182;-86
2022/12/19 04:07:55;;;;;;;158.20;49.97;;;3.00;1.00;;;;;;5022591;28;20242;-87
2022/12/19 04:10:24;;;;;;;168.68;52.50;;;3.00;1.00;;;;;;5030264;28;20200;-86
2022/12/19 04:12:56;;;;;;;183.68;50.80;;;3.00;1.00;;;;;;5023524;28;20179;-85
2022/12/19 04:15:33;;;;;;;196.52;57.78;;;3.10;1.00;;;;;;5020540;28;20222;-88
2022/12/19 04:18:03;;;;;;;186.77;51.60;;;3.10;1.00;;;;;;5021695;28;20240;-87
2022/12/19 04:20:30;;;;;;;216.63;70.13;;;3.20;1.00;;;;;;5004756;28;20183;-86
2022/12/19 04:23:05;;;;;;;186.93;55.10;;;3.20;1.00;;;;;;5032139;28;20191;-85
2022/12/19 04:25:47;;;;;;;228.45;61.95;;;3.20;1.00;;;;;;5022083;28;20183;-86
2022/12/19 04:28:24;;;;;;;231.43;59.45;;;3.20;1.00;;;;;;4997564;28;20199;-86
2022/12/19 04:30:50;;;;;;;211.38;56.88;;;3.30;1.00;;;;;;5013477;28;20202;-86
2022/12/19 04:33:16;;;;;;;225.25;67.00;;;3.30;1.00;;;;;;5015160;28;20210;-86
2022/12/19 04:35:41;;;;;;;224.43;61.60;;;3.30;1.00;;;;;;5016121;28;20187;-87
2022/12/19 04:38:07;;;;;;;218.70;62.37;;;3.40;1.80;;;;;;5001967;28;20206;-86
2022/12/19 04:40:34;;;;;;;232.50;59.13;;;3.40;2.90;;;;;;4996078;28;20269;-86
2022/12/19 04:42:59;;;;;;;232.27;61.92;;;3.50;4.60;;;;;;5015158;28;20209;-86
2022/12/19 04:45:25;;;;;;;196.30;57.47;;;3.50;5.80;;;;;;5015511;28;20218;-86
2022/12/19 04:47:50;;;;;;;201.10;54.30;;;3.50;6.30;;;;;;4999845;28;20301;-86
2022/12/19 04:50:16;;;;;;;223.07;55.00;;;3.60;6.70;;;;;;5019340;28;20210;-86
2022/12/19 04:52:41;;;;;;;200.60;58.33;;;3.70;6.30;;;;;;5014034;28;20207;-86
2022/12/19 04:55:07;;;;;;;227.60;57.83;;;3.70;5.00;;;;;;5014770;28;20206;-86
2022/12/19 04:57:33;;;;;;;201.33;57.17;;;3.70;4.30;;;;;;5014843;28;20285;-87
2022/12/19 04:59:58;;;;;;;215.03;59.77;;;3.70;3.10;;;;;;5013296;28;20454;-86
2022/12/19 05:02:24;;;;;;;182.10;56.97;;;3.70;3.20;;;;;;5014988;28;20667;-86
2022/12/19 05:04:50;;;;;;;196.57;56.27;;;3.70;3.60;;;;;;4997640;28;20206;-86
2022/12/19 05:07:18;;;;;;;191.88;52.78;;;3.80;5.60;;;;;;5019619;28;20770;-87
2022/12/19 05:09:44;;;;;;;196.98;54.80;;;3.90;7.30;;;;;;5025030;28;20175;-87
2022/12/19 05:12:09;;;;;;;193.83;56.50;;;3.90;8.70;;;;;;5026740;28;20194;-87
2022/12/19 05:14:35;;;;;;;188.73;53.50;;;4.00;9.10;;;;;;5018990;28;20191;-86
2022/12/19 05:17:00;;;;;;;217.93;53.87;;;4.00;8.70;;;;;;5018748;28;20225;-87
2022/12/19 05:19:26;;;;;;;189.93;53.20;;;4.10;8.60;;;;;;5015284;28;20436;-87
2022/12/19 05:21:51;;;;;;;205.60;54.90;;;4.10;8.50;;;;;;5006557;28;20831;-87
2022/12/19 05:24:17;;;;;;;211.97;54.93;;;4.10;7.90;;;;;;5021792;28;20181;-87
2022/12/19 05:26:43;;;;;;;218.03;57.07;;;4.20;6.90;;;;;;5023279;28;20202;-86
2022/12/19 05:29:08;;;;;;;212.53;54.60;;;4.20;6.50;;;;;;5022057;28;20201;-87
2022/12/19 05:31:34;;;;;;;189.73;54.47;;;4.30;5.80;;;;;;5012656;28;20582;-87
2022/12/19 05:33:59;;;;;;;213.43;53.30;;;4.30;4.80;;;;;;5001985;28;20190;-86
2022/12/19 05:36:25;;;;;;;203.03;52.90;;;4.30;3.90;;;;;;5020861;28;20214;-87
2022/12/19 05:38:50;;;;;;;169.57;50.47;;;4.30;3.10;;;;;;5011946;28;20215;-86
2022/12/19 05:41:18;;;;;;;175.70;51.07;;;4.30;2.90;;;;;;5016487;28;20534;-85
2022/12/19 05:43:48;;;;;;;209.88;51.63;;;4.40;5.10;;;;;;5013679;28;20180;-86
2022/12/19 05:46:13;;;;;;;159.70;47.63;;;4.40;8.20;;;;;;5009812;28;20179;-86
2022/12/19 05:48:39;;;;;;;171.63;46.03;;;4.50;11.10;;;;;;4992088;28;20233;-85
2022/12/19 05:51:04;;;;;;;136.90;44.37;;;4.60;13.60;;;;;;5004703;28;20197;-86
2022/12/19 05:53:30;;;;;;;147.50;45.90;;;4.70;15.20;;;;;;5009973;28;20186;-87
2022/12/19 05:56:08;;;;;;;150.87;43.80;;;4.80;16.00;;;;;;5021451;28;20250;-86
2022/12/19 05:58:34;;;;;;;151.50;46.00;;;4.90;15.90;;;;;;5020749;28;20202;-86
2022/12/19 06:01:21;;;;;;;159.00;43.50;;;4.90;15.50;;;;;;5020026;28;20183;-87
2022/12/19 06:03:47;;;;;;;148.23;46.78;;;5.00;15.00;;;;;;5018941;28;20182;-86
2022/12/19 06:06:16;;;;;;;154.48;44.67;;;5.00;14.30;;;;;;4999888;28;20334;-86
2022/12/19 06:08:41;;;;;;;153.23;44.33;;;5.10;13.60;;;;;;5003391;28;20191;-86
2022/12/19 06:11:09;;;;;;;128.77;41.07;;;5.10;12.40;;;;;;5017201;28;20194;-86
2022/12/19 06:13:35;;;;;;;129.88;40.95;;;5.10;11.50;;;;;;5014392;28;20179;-87
2022/12/19 06:16:04;;;;;;;128.82;38.78;;;5.20;11.70;;;;;;5013798;28;20191;-86
2022/12/19 06:18:30;;;;;;;101.70;34.92;;;5.30;12.40;;;;;;5012767;28;20217;-86
2022/12/19 06:21:02;;;;;;;108.45;36.33;;;5.40;13.00;;;;;;5011090;28;20674;-87
2022/12/19 06:23:30;;;;;;;117.97;38.22;;;5.40;13.10;;;;;;4994504;28;20229;-86
2022/12/19 06:25:57;;;;;;;110.72;36.90;;;5.50;13.30;;;;;;5016717;28;20253;-86
2022/12/19 06:28:23;;;;;;;96.00;34.35;;;5.50;12.90;;;;;;5018686;28;20210;-89
2022/12/19 06:30:48;;;;;;;92.47;31.77;;;5.60;12.40;;;;;;5016021;28;20203;-87
2022/12/19 06:33:14;;;;;;;86.93;30.80;;;5.70;12.50;;;;;;5018254;28;20262;-87
2022/12/19 06:35:39;;;;;;;83.73;29.27;;;5.70;12.90;;;;;;5003481;28;20254;-86
2022/12/19 06:38:05;;;;;;;71.30;28.20;;;5.80;13.30;;;;;;5020430;28;20394;-86
2022/12/19 06:43:14;;;;;;;55.67;23.70;;;6.00;14.40;;;;;;5015845;28;20190;-86
2022/12/19 06:45:40;;;;;;;51.67;18.93;;;6.10;14.80;;;;;;5000511;28;20183;-85
2022/12/19 06:48:05;;;;;;;38.50;20.10;;;6.20;15.20;;;;;;5016101;28;20215;-86
2022/12/19 06:50:31;;;;;;;38.70;20.23;;;6.30;15.90;;;;;;5014513;28;20269;-88
2022/12/19 06:52:56;;;;;;;43.93;19.70;;;6.40;16.90;;;;;;5008735;28;20178;-87
2022/12/19 06:55:22;;;;;;;38.43;18.07;;;6.50;18.20;;;;;;4997093;28;20198;-87
2022/12/19 06:57:47;;;;;;;46.93;21.67;;;6.70;18.40;;;;;;5011199;28;20215;-87
2022/12/19 07:00:14;;;;;;;37.30;20.60;;;6.80;17.70;;;;;;5009031;28;20188;-87
2022/12/19 07:02:43;;;;;;;40.92;19.20;;;6.80;16.50;;;;;;4991663;28;20671;-87
2022/12/19 07:05:11;;;;;;;41.70;19.85;;;6.90;14.70;;;;;;4991649;28;20567;-88
2022/12/19 07:07:37;;;;;;;42.40;18.50;;;6.90;12.90;;;;;;5011107;28;20289;-87
2022/12/19 07:10:04;;;;;;;31.77;18.23;;;7.00;11.80;;;;;;5009441;28;20260;-87
2022/12/19 07:12:30;;;;;;;33.50;17.17;;;7.00;10.90;;;;;;4996774;28;20461;-87
2022/12/19 07:14:55;;;;;;;44.47;19.03;;;7.10;10.30;;;;;;5011904;28;20270;-88
2022/12/19 07:17:23;;;;;;;37.50;18.60;;;7.10;9.40;;;;;;4990380;28;20484;-87
2022/12/19 07:19:49;;;;;;;43.50;19.40;;;7.20;8.50;;;;;;5009686;28;20190;-86
2022/12/19 07:22:14;;;;;;;36.40;18.20;;;7.20;7.70;;;;;;5012813;28;20662;-87
2022/12/19 07:24:40;;;;;;;39.53;17.00;;;7.20;7.20;;;;;;5013032;28;20186;-87
2022/12/19 07:27:05;;;;;;;36.13;18.27;;;7.30;7.00;;;;;;5014981;28;20203;-88
2022/12/19 07:29:31;;;;;;;36.23;17.90;;;7.30;6.70;;;;;;5017471;28;20217;-87
2022/12/19 07:31:56;;;;;;;31.60;17.77;;;7.40;7.30;;;;;;4998581;28;20597;-88
2022/12/19 07:34:22;;;;;;;33.90;17.90;;;7.40;7.30;;;;;;5014717;28;20175;-87
2022/12/19 07:36:50;;;;;;;34.33;17.77;;;7.50;6.50;;;;;;5010832;28;20214;-87
2022/12/19 07:39:16;;;;;;;37.92;18.48;;;7.50;5.10;;;;;;5013573;28;20171;-87
2022/12/19 07:41:41;;;;;;;31.73;17.27;;;7.50;3.30;;;;;;5011945;28;20658;-88
2022/12/19 07:44:07;;;;;;;34.93;16.13;;;7.50;1.90;;;;;;5002642;28;20186;-88
2022/12/19 07:46:33;;;;;;;31.00;17.40;;;7.50;1.00;;;;;;5001155;28;20199;-88
2022/12/19 07:48:59;;;;;;;40.90;17.80;;;7.60;1.00;;;;;;5014950;28;20461;-87
2022/12/19 07:51:24;;;;;;;38.90;17.23;;;7.60;1.00;;;;;;5015941;28;20671;-87
2022/12/19 07:53:50;;;;;;;33.03;17.60;;;7.60;1.00;;;;;;5006705;28;20529;-87
2022/12/19 07:56:16;;;;;;;37.00;17.60;;;7.60;1.00;;;;;;5016614;28;20227;-89
2022/12/19 07:58:43;;;;;;;36.85;19.27;;;7.60;1.00;;;;;;5000180;28;20202;-86
2022/12/19 08:01:10;;;;;;;32.28;17.30;;;7.70;1.00;;;;;;5017715;28;20179;-88
2022/12/19 08:03:36;;;;;;;32.28;16.38;;;7.70;1.00;;;;;;5030003;28;20155;-88
2022/12/19 08:06:04;;;;;;;41.03;16.80;;;7.70;1.00;;;;;;5023995;28;20195;-87
2022/12/19 08:08:30;;;;;;;28.02;16.30;;;7.70;1.00;;;;;;5000407;28;20273;-86
2022/12/19 08:11:06;;;;;;;36.67;18.73;;;7.70;1.00;;;;;;5009718;28;20178;-86
2022/12/19 08:13:31;;;;;;;32.45;16.45;;;7.80;1.00;;;;;;5010495;28;20202;-85
2022/12/19 08:15:59;;;;;;;29.97;15.77;;;7.80;1.00;;;;;;4995938;28;20178;-89
2022/12/19 08:18:25;;;;;;;35.22;17.05;;;7.80;1.00;;;;;;5011903;28;20206;-88
2022/12/19 08:20:50;;;;;;;36.33;16.77;;;7.80;1.00;;;;;;4996211;28;20186;-88
2022/12/19 08:23:16;;;;;;;30.83;15.90;;;7.90;1.00;;;;;;5011029;28;20195;-87
2022/12/19 08:25:41;;;;;;;32.00;16.90;;;7.90;1.00;;;;;;5010531;28;20187;-87
2022/12/19 08:28:07;;;;;;;31.07;15.50;;;7.90;1.00;;;;;;5010196;28;20253;-88
2022/12/19 08:30:32;;;;;;;34.23;15.87;;;8.00;1.00;;;;;;5012677;28;20217;-89
2022/12/19 08:32:58;;;;;;;29.00;15.77;;;8.00;1.00;;;;;;4997641;28;20563;-88
2022/12/19 08:35:23;;;;;;;27.63;16.27;;;8.00;1.00;;;;;;5012598;28;20199;-88
2022/12/19 08:37:49;;;;;;;29.50;15.33;;;8.10;1.00;;;;;;4996091;28;20289;-86
2022/12/19 08:40:14;;;;;;;31.67;17.30;;;8.10;1.00;;;;;;5013612;28;20186;-88
2022/12/19 08:42:40;;;;;;;30.00;16.70;;;8.20;1.00;;;;;;5012107;28;20566;-87
2022/12/19 08:45:06;;;;;;;32.90;14.73;;;8.30;1.00;;;;;;4997552;28;20183;-88
2022/12/19 08:47:32;;;;;;;32.80;14.15;;;8.30;1.00;;;;;;5002900;28;20469;-88
2022/12/19 08:49:57;;;;;;;32.20;15.70;;;8.40;1.00;;;;;;5013714;28;20265;-87
2022/12/19 08:52:23;;;;;;;30.70;16.10;;;8.50;1.00;;;;;;4999314;28;20187;-87
2022/12/19 08:54:48;;;;;;;29.43;15.10;;;8.50;1.00;;;;;;5013504;28;20178;-87
2022/12/19 08:57:14;;;;;;;28.93;15.50;;;8.60;1.00;;;;;;5014739;28;20222;-87
2022/12/19 08:59:39;;;;;;;24.87;13.97;;;8.60;1.00;;;;;;5013471;28;20225;-87
2022/12/19 09:02:05;;;;;;;25.37;14.60;;;8.70;1.00;;;;;;5001691;28;20183;-87
2022/12/19 09:04:30;;;;;;;25.97;13.53;;;8.70;1.00;;;;;;5016509;28;20194;-87
2022/12/19 09:06:56;;;;;;;22.80;12.13;;;8.80;1.00;;;;;;5013912;28;20756;-87
2022/12/19 09:09:21;;;;;;;23.20;13.30;;;8.80;1.00;;;;;;5012694;28;20191;-86
2022/12/19 09:11:47;;;;;;;23.97;13.10;;;8.90;1.00;;;;;;5015772;28;20187;-86
2022/12/19 09:14:12;;;;;;;22.47;13.20;;;8.90;1.00;;;;;;5013311;28;20268;-86
2022/12/19 09:16:38;;;;;;;19.73;12.70;;;9.00;1.00;;;;;;5009319;28;20305;-86
2022/12/19 09:19:04;;;;;;;19.30;12.53;;;9.00;1.00;;;;;;5012448;28;20663;-85
2022/12/19 09:21:29;;;;;;;24.30;13.57;;;9.00;1.00;;;;;;5012450;28;20175;-87
2022/12/19 09:23:57;;;;;;;24.87;13.20;;;9.10;1.00;;;;;;4995609;28;20450;-86
2022/12/19 09:26:25;;;;;;;20.73;11.70;;;9.10;1.00;;;;;;5012898;28;20187;-86
2022/12/19 09:28:51;;;;;;;21.90;13.90;;;9.20;1.00;;;;;;5012252;28;20450;-86
2022/12/19 09:31:20;;;;;;;20.07;13.00;;;9.20;1.00;;;;;;5008343;28;20489;-86
2022/12/19 09:33:46;;;;;;;19.85;11.93;;;9.20;1.00;;;;;;5010647;28;20434;-86
2022/12/19 09:36:18;;;;;;;18.33;11.87;;;9.20;1.00;;;;;;5012045;28;20193;-85
2022/12/19 09:38:44;;;;;;;22.03;12.13;;;9.20;1.00;;;;;;5011803;28;20433;-86
2022/12/19 09:41:12;;;;;;;19.65;10.98;;;9.20;1.00;;;;;;4995808;28;20426;-86
2022/12/19 09:43:56;;;;;;;27.03;12.03;;;9.20;1.00;;;;;;4993601;28;20201;-86
2022/12/19 09:46:51;;;;;;;15.43;9.70;;;9.20;1.00;;;;;;5009559;28;20501;-86
2022/12/19 09:49:21;;;;;;;16.50;10.40;;;9.30;1.00;;;;;;5008506;28;20437;-86
2022/12/19 09:52:07;;;;;;;16.77;11.23;;;9.20;1.00;;;;;;5007215;28;20434;-86
2022/12/19 09:54:42;;;;;;;16.27;9.40;;;9.30;1.00;;;;;;4996612;28;20438;-86
2022/12/19 09:57:22;;;;;;;15.37;10.10;;;9.30;1.00;;;;;;5015338;28;20511;-84
2022/12/19 09:59:52;;;;;;;17.90;10.23;;;9.40;1.00;;;;;;5007379;28;20433;-86
2022/12/19 10:02:46;;;;;;;16.73;11.40;;;9.40;1.00;;;;;;5014284;28;21008;-86
2022/12/19 10:05:24;;;;;;;21.00;14.33;;;9.50;1.00;;;;;;4990282;28;20690;-86
2022/12/19 10:07:51;;;;;;;16.20;11.13;;;9.50;1.00;;;;;;5008057;28;20952;-86
2022/12/19 10:10:28;;;;;;;12.77;9.30;;;9.60;1.00;;;;;;5019670;28;20425;-85
2022/12/19 10:13:38;;;;;;;16.27;9.03;;;9.60;1.00;;;;;;5005919;28;20524;-86
2022/12/19 10:16:15;;;;;;;15.43;9.40;;;9.60;1.00;;;;;;4998390;28;20436;-87
2022/12/19 10:19:14;;;;;;;10.67;7.80;;;9.70;1.00;;;;;;4996012;28;20873;-86
2022/12/19 10:22:10;;;;;;;10.53;6.80;;;9.80;1.00;;;;;;5010723;28;20437;-85
2022/12/19 10:24:54;;;;;;;10.10;6.47;;;9.90;1.00;;;;;;5009995;28;20446;-86
2022/12/19 10:27:25;;;;;;;9.07;5.77;;;9.90;1.00;;;;;;4993099;28;20980;-86
2022/12/19 10:30:16;;;;;;;8.60;5.57;;;10.00;1.00;;;;;;5003446;28;20426;-86
2022/12/19 10:33:19;;;;;;;11.30;5.10;;;10.00;1.00;;;;;;5006848;28;21057;-87
2022/12/19 10:35:51;;;;;;;6.30;4.63;;;10.10;1.00;;;;;;5013762;28;20417;-86
2022/12/19 10:38:22;;;;;;;7.50;5.00;;;10.10;1.00;;;;;;5012482;28;20477;-86
2022/12/19 10:41:07;;;;;;;7.73;4.90;;;10.20;1.00;;;;;;5012538;28;20437;-86
2022/12/19 10:43:53;;;;;;;7.37;5.03;;;10.20;1.00;;;;;;5013869;28;20813;-88
2022/12/19 10:46:30;;;;;;;6.30;4.77;;;10.20;1.00;;;;;;5017440;28;20516;-86
2022/12/19 10:48:55;;;;;;;6.17;3.90;;;10.20;1.00;;;;;;5014056;28;20460;-86
2022/12/19 10:51:28;;;;;;;6.13;4.73;;;10.20;1.00;;;;;;5015802;28;20512;-86
2022/12/19 10:53:56;;;;;;;8.70;4.33;;;10.20;1.00;;;;;;5002887;28;20483;-86
2022/12/19 10:56:31;;;;;;;6.17;4.17;;;10.20;1.00;;;;;;5014943;28;20446;-85
2022/12/19 10:58:58;;;;;;;6.80;3.80;;;10.30;1.00;;;;;;4989168;28;20534;-86
2022/12/19 11:01:32;;;;;;;5.17;3.80;;;10.40;1.00;;;;;;5013100;28;20453;-87
2022/12/19 11:04:12;;;;;;;6.63;4.23;;;10.40;1.00;;;;;;5013676;28;20437;-86
2022/12/19 11:07:23;;;;;;;7.67;5.03;;;10.50;1.00;;;;;;5017136;28;20465;-88
2022/12/19 11:09:48;;;;;;;9.83;4.40;;;10.60;1.00;;;;;;4984008;28;20457;-86
2022/12/19 11:12:17;;;;;;;10.10;4.80;;;10.70;1.00;;;;;;5012905;28;20445;-86
2022/12/19 11:14:50;;;;;;;8.67;4.77;;;10.80;1.00;;;;;;5010366;28;20245;-86
2022/12/19 11:17:55;;;;;;;9.67;3.90;;;10.90;1.00;;;;;;4997567;28;20490;-87
2022/12/19 11:20:22;;;;;;;5.03;4.23;;;11.00;1.00;;;;;;4993989;28;20438;-87
2022/12/19 11:23:00;;;;;;;4.37;3.67;;;11.10;1.00;;;;;;5007112;28;20470;-87
2022/12/19 11:25:41;;;;;;;4.87;3.20;;;11.20;99.90;;;;;;5009390;28;20903;-87
2022/12/19 11:28:34;;;;;;;6.50;4.03;;;11.30;99.90;;;;;;5012137;28;20442;-86
2022/12/19 11:31:22;;;;;;;4.23;3.10;;;11.40;99.90;;;;;;5009820;28;20918;-87
2022/12/19 11:33:54;;;;;;;9.93;4.70;;;11.40;99.90;;;;;;5009330;28;20445;-87
2022/12/19 11:36:36;;;;;;;4.40;3.50;;;11.50;99.90;;;;;;5009580;28;20790;-86
2022/12/19 11:39:03;;;;;;;4.47;3.00;;;11.50;99.90;;;;;;5020442;28;20410;-87
2022/12/19 11:41:44;;;;;;;8.17;3.60;;;11.50;99.90;;;;;;5033427;28;20433;-87
2022/12/19 11:44:27;;;;;;;3.83;3.23;;;11.50;99.90;;;;;;5019990;28;20424;-87
2022/12/19 11:47:08;;;;;;;4.63;3.30;;;11.50;99.90;;;;;;5005588;28;20527;-88
2022/12/19 11:49:39;;;;;;;3.53;3.00;;;11.50;56.50;;;;;;5010475;28;20449;-87
2022/12/19 11:52:22;;;;;;;8.77;3.50;;;11.60;29.20;;;;;;4996069;28;20960;-87
2022/12/19 11:55:00;;;;;;;3.73;3.10;;;11.70;1.00;;;;;;5013031;28;20456;-87
2022/12/19 11:57:26;;;;;;;5.07;3.40;;;11.80;1.00;;;;;;4994816;28;20473;-88
2022/12/19 11:59:53;;;;;;;4.70;2.83;;;11.90;1.00;;;;;;5007069;28;20847;-86
2022/12/19 12:02:52;;;;;;;6.07;3.60;;;12.00;99.90;;;;;;5007386;28;20446;-86
2022/12/19 12:05:45;;;;;;;5.40;3.40;;;12.20;99.90;;;;;;5005516;28;20481;-89
2022/12/19 12:08:35;;;;;;;4.90;3.30;;;12.30;1.00;;;;;;5007152;28;20460;-87
2022/12/19 12:11:37;;;;;;;5.40;3.67;;;12.40;33.60;;;;;;4998134;28;20426;-86
2022/12/19 12:14:18;;;;;;;3.83;2.97;;;12.50;1.00;;;;;;4989867;28;20437;-87
2022/12/19 12:17:24;;;;;;;6.43;3.50;;;12.50;99.90;;;;;;4996083;28;20492;-87
2022/12/19 12:19:58;;;;;;;7.47;3.93;;;12.60;1.00;;;;;;5007274;28;20816;-86
2022/12/19 12:22:50;;;;;;;5.03;3.97;;;12.70;1.00;;;;;;5011480;28;20436;-85
2022/12/19 12:25:27;;;;;;;4.70;3.90;;;12.70;1.00;;;;;;5013557;28;20436;-86
2022/12/19 12:28:31;;;;;;;4.63;3.90;;;12.80;1.00;;;;;;4998227;28;20453;-87
2022/12/19 12:31:08;;;;;;;5.53;3.70;;;12.90;1.00;;;;;;5008043;28;20500;-86
2022/12/19 12:33:51;;;;;;;5.17;4.10;;;12.90;74.20;;;;;;5008530;28;20540;-86
2022/12/19 12:36:41;;;;;;;11.97;5.20;;;12.90;99.90;;;;;;5013811;28;21186;-87
2022/12/19 12:39:18;;;;;;;5.07;4.13;;;13.00;1.00;;;;;;4985764;28;20462;-87
2022/12/19 12:42:51;;;;;;;4.90;3.53;;;13.10;1.00;;;;;;4994383;28;20438;-86
2022/12/19 12:45:21;;;;;;;6.37;5.57;;;13.20;99.40;;;;;;4893337;29;20504;-87
2022/12/19 12:47:50;;;;;;;10.73;4.37;;;13.20;29.50;;;;;;4935113;28;20441;-87
2022/12/19 12:50:17;;;;;;;10.43;5.47;;;13.20;1.00;;;;;;4994011;28;20442;-88
2022/12/19 12:52:50;;;;;;;7.63;4.50;;;13.20;1.00;;;;;;5012416;28;20488;-87
2022/12/19 12:55:40;;;;;;;7.17;4.57;;;13.30;1.00;;;;;;4994459;28;20560;-87
2022/12/19 12:58:37;;;;;;;6.03;3.57;;;13.30;99.90;;;;;;5006129;28;20469;-87
2022/12/19 13:01:09;;;;;;;32.53;29.80;;;13.30;99.90;;;;;;4997699;28;20448;-87
2022/12/19 13:03:35;;;;;;;6.57;5.30;;;13.20;1.00;;;;;;5007948;28;20446;-87
2022/12/19 13:06:19;;;;;;;8.07;6.23;;;13.10;1.00;;;;;;5013527;28;20429;-88
2022/12/19 13:08:47;;;;;;;8.27;7.27;;;13.00;99.90;;;;;;5003288;28;20216;-87
2022/12/19 13:14:04;;;;;;;8.70;7.23;;;13.10;99.90;;;;;;5011819;28;20496;-88
2022/12/19 13:16:48;;;;;;;11.77;10.57;;;13.10;99.90;;;;;;5012966;28;20419;-87
2022/12/19 13:19:17;;;;;;;10.60;6.47;;;13.20;8.80;;;;;;5013312;28;20415;-87